sensor_id;sensor_type;location;lat;lon;timestamp;pressure;altitude;pressure_sealevel;temperature;humidity
55351;BME280;62194;49.480;10.986;2023-02-02T00:00:00;98384.25;;;4.73;75.80
55351;BME280;62194;49.480;10.986;2023-02-02T00:00:06;98360.66;;;4.51;75.93
55351;BME280;62194;49.480;10.986;2023-02-02T00:00:12;98386.94;;;4.73;75.70
55351;BME280;62194;49.480;10.986;2023-02-02T00:00:17;98396.66;;;4.74;75.69
55351;BME280;62194;49.480;10.986;2023-02-02T00:00:23;98356.09;;;4.52;75.67
55351;BME280;62194;49.480;10.986;2023-02-02T00:00:28;98374.16;;;4.65;75.59
55351;BME280;62194;49.480;10.986;2023-02-02T00:00:33;98400.84;;;4.80;75.71
55351;BME280;62194;49.480;10.986;2023-02-02T00:00:41;98391.25;;;4.74;75.66
55351;BME280;62194;49.480;10.986;2023-02-02T00:00:47;98387.25;;;4.72;75.91
55351;BME280;62194;49.480;10.986;2023-02-02T00:00:55;98404.66;;;4.79;75.80
55351;BME280;62194;49.480;10.986;2023-02-02T00:01:07;98376.34;;;4.63;76.08
55351;BME280;62194;49.480;10.986;2023-02-02T00:01:13;98397.66;;;4.78;76.09
55351;BME280;62194;49.480;10.986;2023-02-02T00:01:19;98388.47;;;4.65;75.74
55351;BME280;62194;49.480;10.986;2023-02-02T00:01:25;98375.56;;;4.62;75.73
55351;BME280;62194;49.480;10.986;2023-02-02T00:01:31;98361.25;;;4.62;75.88
55351;BME280;62194;49.480;10.986;2023-02-02T00:01:41;98396.25;;;4.81;75.57
55351;BME280;62194;49.480;10.986;2023-02-02T00:01:50;98366.47;;;4.58;76.05
55351;BME280;62194;49.480;10.986;2023-02-02T00:01:58;98389.34;;;4.75;76.04
55351;BME280;62194;49.480;10.986;2023-02-02T00:02:03;98345.19;;;4.43;76.06
55351;BME280;62194;49.480;10.986;2023-02-02T00:02:12;98367.75;;;4.61;76.02
55351;BME280;62194;49.480;10.986;2023-02-02T00:02:17;98397.34;;;4.80;75.75
55351;BME280;62194;49.480;10.986;2023-02-02T00:02:22;98388.84;;;4.73;75.95
55351;BME280;62194;49.480;10.986;2023-02-02T00:02:27;98378.84;;;4.73;75.98
55351;BME280;62194;49.480;10.986;2023-02-02T00:02:39;98385.34;;;4.72;75.87
55351;BME280;62194;49.480;10.986;2023-02-02T00:02:44;98388.34;;;4.70;75.82
55351;BME280;62194;49.480;10.986;2023-02-02T00:02:49;98360.97;;;4.50;76.16
55351;BME280;62194;49.480;10.986;2023-02-02T00:02:54;98383.94;;;4.75;76.26
55351;BME280;62194;49.480;10.986;2023-02-02T00:03:00;98395.38;;;4.72;75.78
55351;BME280;62194;49.480;10.986;2023-02-02T00:03:05;98397.34;;;4.80;76.30
55351;BME280;62194;49.480;10.986;2023-02-02T00:03:10;98382.16;;;4.70;76.20
55351;BME280;62194;49.480;10.986;2023-02-02T00:03:16;98334.53;;;4.60;75.69
55351;BME280;62194;49.480;10.986;2023-02-02T00:03:21;98343.47;;;4.47;75.84
55351;BME280;62194;49.480;10.986;2023-02-02T00:03:27;98382.16;;;4.70;75.81
55351;BME280;62194;49.480;10.986;2023-02-02T00:03:32;98361.25;;;4.62;75.76
55351;BME280;62194;49.480;10.986;2023-02-02T00:03:37;98363.16;;;4.61;75.82
55351;BME280;62194;49.480;10.986;2023-02-02T00:03:43;98387.31;;;4.80;76.00
55351;BME280;62194;49.480;10.986;2023-02-02T00:03:49;98367.88;;;4.56;75.83
55351;BME280;62194;49.480;10.986;2023-02-02T00:03:55;98408.66;;;4.82;76.03
55351;BME280;62194;49.480;10.986;2023-02-02T00:04:01;98356.09;;;4.52;76.22
55351;BME280;62194;49.480;10.986;2023-02-02T00:04:08;98361.88;;;4.59;76.14
55351;BME280;62194;49.480;10.986;2023-02-02T00:04:22;98369.38;;;4.62;76.54
55351;BME280;62194;49.480;10.986;2023-02-02T00:04:30;98391.75;;;4.76;76.85
55351;BME280;62194;49.480;10.986;2023-02-02T00:04:36;98369.38;;;4.62;76.29
55351;BME280;62194;49.480;10.986;2023-02-02T00:04:41;98403.53;;;4.80;76.17
55351;BME280;62194;49.480;10.986;2023-02-02T00:04:46;98376.66;;;4.75;76.34
55351;BME280;62194;49.480;10.986;2023-02-02T00:04:52;98362.66;;;4.59;76.25
55351;BME280;62194;49.480;10.986;2023-02-02T00:04:57;98388.16;;;4.81;76.44
55351;BME280;62194;49.480;10.986;2023-02-02T00:05:03;98382.16;;;4.70;76.31
55351;BME280;62194;49.480;10.986;2023-02-02T00:05:08;98396.03;;;4.77;76.73
55351;BME280;62194;49.480;10.986;2023-02-02T00:05:13;98392.72;;;4.80;76.30
55351;BME280;62194;49.480;10.986;2023-02-02T00:05:19;98381.84;;;4.72;76.49
55351;BME280;62194;49.480;10.986;2023-02-02T00:05:24;98374.44;;;4.63;76.61
55351;BME280;62194;49.480;10.986;2023-02-02T00:05:29;98408.47;;;4.78;76.88
55351;BME280;62194;49.480;10.986;2023-02-02T00:05:34;98363.47;;;4.60;76.99
55351;BME280;62194;49.480;10.986;2023-02-02T00:05:47;98392.44;;;4.82;76.97
55351;BME280;62194;49.480;10.986;2023-02-02T00:05:56;98390.53;;;4.82;76.45
55351;BME280;62194;49.480;10.986;2023-02-02T00:06:04;98359.16;;;4.59;76.56
55351;BME280;62194;49.480;10.986;2023-02-02T00:06:10;98344.25;;;4.47;76.36
55351;BME280;62194;49.480;10.986;2023-02-02T00:06:19;98359.84;;;4.51;76.61
55351;BME280;62194;49.480;10.986;2023-02-02T00:06:27;98399.06;;;4.76;76.88
55351;BME280;62194;49.480;10.986;2023-02-02T00:06:32;98362.66;;;4.59;76.84
55351;BME280;62194;49.480;10.986;2023-02-02T00:06:40;98397.16;;;4.76;76.96
55351;BME280;62194;49.480;10.986;2023-02-02T00:06:46;98379.63;;;4.74;76.70
55351;BME280;62194;49.480;10.986;2023-02-02T00:06:52;98394.63;;;4.80;77.03
55351;BME280;62194;49.480;10.986;2023-02-02T00:06:58;98396.53;;;4.79;77.18
55351;BME280;62194;49.480;10.986;2023-02-02T00:07:04;98355.47;;;4.55;77.19
55351;BME280;62194;49.480;10.986;2023-02-02T00:07:12;98386.84;;;4.78;77.24
55351;BME280;62194;49.480;10.986;2023-02-02T00:07:17;98363.97;;;4.62;77.55
55351;BME280;62194;49.480;10.986;2023-02-02T00:07:25;98357.78;;;4.61;77.93
55351;BME280;62194;49.480;10.986;2023-02-02T00:07:30;98372.88;;;4.62;77.58
55351;BME280;62194;49.480;10.986;2023-02-02T00:07:36;98381.84;;;4.72;77.57
55351;BME280;62194;49.480;10.986;2023-02-02T00:07:41;98397.75;;;4.73;77.38
55351;BME280;62194;49.480;10.986;2023-02-02T00:07:46;98388.34;;;4.70;77.60
55351;BME280;62194;49.480;10.986;2023-02-02T00:07:51;98398.72;;;4.77;77.44
55351;BME280;62194;49.480;10.986;2023-02-02T00:07:57;98360.28;;;4.58;77.65
55351;BME280;62194;49.480;10.986;2023-02-02T00:08:02;98365.38;;;4.59;77.55
55351;BME280;62194;49.480;10.986;2023-02-02T00:08:07;98381.94;;;4.66;77.64
55351;BME280;62194;49.480;10.986;2023-02-02T00:08:13;98381.06;;;4.71;77.89
55351;BME280;62194;49.480;10.986;2023-02-02T00:08:20;98358.66;;;4.57;77.79
55351;BME280;62194;49.480;10.986;2023-02-02T00:08:25;98375.94;;;4.69;77.84
55351;BME280;62194;49.480;10.986;2023-02-02T00:08:33;98360.28;;;4.58;77.78
55351;BME280;62194;49.480;10.986;2023-02-02T00:08:40;98343.78;;;4.45;78.52
55351;BME280;62194;49.480;10.986;2023-02-02T00:08:45;98348.47;;;4.54;78.25
55351;BME280;62194;49.480;10.986;2023-02-02T00:08:59;98385.34;;;4.72;78.33
55351;BME280;62194;49.480;10.986;2023-02-02T00:09:05;98359.25;;;4.54;78.39
55351;BME280;62194;49.480;10.986;2023-02-02T00:09:16;98354.47;;;4.51;78.71
55351;BME280;62194;49.480;10.986;2023-02-02T00:09:21;98337.19;;;4.52;78.46
55351;BME280;62194;49.480;10.986;2023-02-02T00:09:29;98377.44;;;4.76;78.21
55351;BME280;62194;49.480;10.986;2023-02-02T00:09:35;98351.34;;;4.57;78.54
55351;BME280;62194;49.480;10.986;2023-02-02T00:09:40;98331.28;;;4.50;78.36
55351;BME280;62194;49.480;10.986;2023-02-02T00:09:45;98350.56;;;4.57;78.13
55351;BME280;62194;49.480;10.986;2023-02-02T00:09:50;98324.38;;;4.43;78.58
55351;BME280;62194;49.480;10.986;2023-02-02T00:09:56;98373.75;;;4.72;78.08
55351;BME280;62194;49.480;10.986;2023-02-02T00:10:03;98382.34;;;4.74;78.05
55351;BME280;62194;49.480;10.986;2023-02-02T00:10:09;98378.38;;;4.71;78.35
55351;BME280;62194;49.480;10.986;2023-02-02T00:10:14;98350.38;;;4.53;78.26
55351;BME280;62194;49.480;10.986;2023-02-02T00:10:20;98388.06;;;4.72;78.61
55351;BME280;62194;49.480;10.986;2023-02-02T00:10:25;98357.88;;;4.56;79.19
55351;BME280;62194;49.480;10.986;2023-02-02T00:10:30;98357.66;;;4.53;78.94
55351;BME280;62194;49.480;10.986;2023-02-02T00:10:35;98357.88;;;4.56;79.14
55351;BME280;62194;49.480;10.986;2023-02-02T00:10:44;98378.66;;;4.69;79.08
55351;BME280;62194;49.480;10.986;2023-02-02T00:10:50;98351.16;;;4.54;79.42
55351;BME280;62194;49.480;10.986;2023-02-02T00:10:57;98374.84;;;4.70;79.61
55351;BME280;62194;49.480;10.986;2023-02-02T00:11:06;98362.47;;;4.56;79.30
55351;BME280;62194;49.480;10.986;2023-02-02T00:11:11;98333.06;;;4.40;79.83
55351;BME280;62194;49.480;10.986;2023-02-02T00:11:18;98358.47;;;4.53;79.62
55351;BME280;62194;49.480;10.986;2023-02-02T00:11:27;98358.97;;;4.55;79.32
55351;BME280;62194;49.480;10.986;2023-02-02T00:11:35;98352.69;;;4.46;79.52
55351;BME280;62194;49.480;10.986;2023-02-02T00:11:41;98382.75;;;4.67;79.89
55351;BME280;62194;49.480;10.986;2023-02-02T00:11:48;98356.38;;;4.50;80.02
55351;BME280;62194;49.480;10.986;2023-02-02T00:11:56;98374.16;;;4.65;79.32
55351;BME280;62194;49.480;10.986;2023-02-02T00:12:04;98366.56;;;4.53;79.22
55351;BME280;62194;49.480;10.986;2023-02-02T00:12:09;98370.34;;;4.66;79.24
55351;BME280;62194;49.480;10.986;2023-02-02T00:12:17;98348.06;;;4.46;79.09
55351;BME280;62194;49.480;10.986;2023-02-02T00:12:22;98342.47;;;4.43;78.82
55351;BME280;62194;49.480;10.986;2023-02-02T00:12:28;98340.09;;;4.41;78.83
55351;BME280;62194;49.480;10.986;2023-02-02T00:12:36;98382.28;;;4.65;79.05
55351;BME280;62194;49.480;10.986;2023-02-02T00:12:41;98360.66;;;4.51;79.18
55351;BME280;62194;49.480;10.986;2023-02-02T00:12:46;98345.19;;;4.43;78.70
55351;BME280;62194;49.480;10.986;2023-02-02T00:12:52;98369.03;;;4.63;78.50
55351;BME280;62194;49.480;10.986;2023-02-02T00:12:58;98362.09;;;4.49;78.72
55351;BME280;62194;49.480;10.986;2023-02-02T00:13:03;98337.19;;;4.38;78.90
55351;BME280;62194;49.480;10.986;2023-02-02T00:13:08;98393.66;;;4.62;79.17
55351;BME280;62194;49.480;10.986;2023-02-02T00:13:13;98362.69;;;4.45;78.98
55351;BME280;62194;49.480;10.986;2023-02-02T00:13:22;98345.78;;;4.40;78.69
55351;BME280;62194;49.480;10.986;2023-02-02T00:13:27;98351.09;;;4.45;78.86
55351;BME280;62194;49.480;10.986;2023-02-02T00:13:32;98337.28;;;4.33;78.92
55351;BME280;62194;49.480;10.986;2023-02-02T00:13:38;98376.34;;;4.63;78.67
55351;BME280;62194;49.480;10.986;2023-02-02T00:13:44;98369.84;;;4.64;78.90
55351;BME280;62194;49.480;10.986;2023-02-02T00:13:49;98341.69;;;4.42;78.24
55351;BME280;62194;49.480;10.986;2023-02-02T00:13:55;98353.25;;;4.57;78.51
55351;BME280;62194;49.480;10.986;2023-02-02T00:14:03;98362.66;;;4.59;78.67
55351;BME280;62194;49.480;10.986;2023-02-02T00:14:08;98344.88;;;4.44;78.62
55351;BME280;62194;49.480;10.986;2023-02-02T00:14:17;98373.66;;;4.63;78.67
55351;BME280;62194;49.480;10.986;2023-02-02T00:14:22;98368.25;;;4.63;78.84
55351;BME280;62194;49.480;10.986;2023-02-02T00:14:28;98378.25;;;4.62;79.16
55351;BME280;62194;49.480;10.986;2023-02-02T00:14:34;98370.16;;;4.62;78.87
55351;BME280;62194;49.480;10.986;2023-02-02T00:14:39;98328.09;;;4.34;78.69
55351;BME280;62194;49.480;10.986;2023-02-02T00:14:44;98370.38;;;4.52;78.92
55351;BME280;62194;49.480;10.986;2023-02-02T00:14:52;98370.25;;;4.57;79.01
55351;BME280;62194;49.480;10.986;2023-02-02T00:14:58;98350.16;;;4.50;79.20
55351;BME280;62194;49.480;10.986;2023-02-02T00:15:03;98338.78;;;4.39;78.58
55351;BME280;62194;49.480;10.986;2023-02-02T00:15:09;98344.66;;;4.41;78.92
55351;BME280;62194;49.480;10.986;2023-02-02T00:15:20;98370.25;;;4.57;78.44
55351;BME280;62194;49.480;10.986;2023-02-02T00:15:26;98339.88;;;4.38;78.91
55351;BME280;62194;49.480;10.986;2023-02-02T00:15:31;98369.25;;;4.53;79.23
55351;BME280;62194;49.480;10.986;2023-02-02T00:15:37;98348.06;;;4.46;79.42
55351;BME280;62194;49.480;10.986;2023-02-02T00:15:43;98336.75;;;4.44;79.31
55351;BME280;62194;49.480;10.986;2023-02-02T00:15:48;98333.06;;;4.40;79.32
55351;BME280;62194;49.480;10.986;2023-02-02T00:15:54;98323.00;;;4.32;79.14
55351;BME280;62194;49.480;10.986;2023-02-02T00:16:20;98323.47;;;4.34;79.14
55351;BME280;62194;49.480;10.986;2023-02-02T00:16:45;98370.75;;;4.59;79.32
55351;BME280;62194;49.480;10.986;2023-02-02T00:16:52;98374.25;;;4.60;79.12
55351;BME280;62194;49.480;10.986;2023-02-02T00:17:01;98375.06;;;4.60;79.18
55351;BME280;62194;49.480;10.986;2023-02-02T00:17:09;98352.88;;;4.50;79.34
55351;BME280;62194;49.480;10.986;2023-02-02T00:17:15;98321.38;;;4.31;78.79
55351;BME280;62194;49.480;10.986;2023-02-02T00:17:20;98368.06;;;4.59;78.86
55351;BME280;62194;49.480;10.986;2023-02-02T00:17:28;98341.38;;;4.44;78.48
55351;BME280;62194;49.480;10.986;2023-02-02T00:17:33;98369.38;;;4.62;79.00
55351;BME280;62194;49.480;10.986;2023-02-02T00:17:39;98353.19;;;4.48;78.54
55351;BME280;62194;49.480;10.986;2023-02-02T00:17:44;98367.56;;;4.57;78.65
55351;BME280;62194;49.480;10.986;2023-02-02T00:17:49;98360.38;;;4.53;78.41
55351;BME280;62194;49.480;10.986;2023-02-02T00:17:55;98338.19;;;4.42;78.20
55351;BME280;62194;49.480;10.986;2023-02-02T00:18:00;98327.91;;;4.30;78.43
55351;BME280;62194;49.480;10.986;2023-02-02T00:18:05;98339.28;;;4.41;78.51
55351;BME280;62194;49.480;10.986;2023-02-02T00:18:11;98336.56;;;4.41;78.92
55351;BME280;62194;49.480;10.986;2023-02-02T00:18:16;98334.69;;;4.41;78.88
55351;BME280;62194;49.480;10.986;2023-02-02T00:18:21;98366.16;;;4.60;78.94
55351;BME280;62194;49.480;10.986;2023-02-02T00:18:27;98320.59;;;4.31;78.52
55351;BME280;62194;49.480;10.986;2023-02-02T00:18:32;98352.28;;;4.53;78.76
55351;BME280;62194;49.480;10.986;2023-02-02T00:18:37;98371.28;;;4.61;79.14
55351;BME280;62194;49.480;10.986;2023-02-02T00:18:42;98363.59;;;4.55;78.87
55351;BME280;62194;49.480;10.986;2023-02-02T00:19:13;98360.06;;;4.54;79.35
55351;BME280;62194;49.480;10.986;2023-02-02T00:19:23;98321.09;;;4.33;78.63
55351;BME280;62194;49.480;10.986;2023-02-02T00:19:30;98360.28;;;4.58;78.75
55351;BME280;62194;49.480;10.986;2023-02-02T00:19:36;98363.47;;;4.60;78.82
55351;BME280;62194;49.480;10.986;2023-02-02T00:19:41;98363.16;;;4.61;79.03
55351;BME280;62194;49.480;10.986;2023-02-02T00:19:46;98360.75;;;4.60;79.24
55351;BME280;62194;49.480;10.986;2023-02-02T00:19:52;98332.38;;;4.35;79.04
55351;BME280;62194;49.480;10.986;2023-02-02T00:20:00;98339.88;;;4.38;78.99
55351;BME280;62194;49.480;10.986;2023-02-02T00:20:06;98370.06;;;4.54;78.95
55351;BME280;62194;49.480;10.986;2023-02-02T00:20:12;98366.94;;;4.60;78.84
55351;BME280;62194;49.480;10.986;2023-02-02T00:20:17;98373.56;;;4.54;78.66
55351;BME280;62194;49.480;10.986;2023-02-02T00:20:22;98324.59;;;4.33;78.86
55351;BME280;62194;49.480;10.986;2023-02-02T00:20:28;98362.06;;;4.62;78.83
55351;BME280;62194;49.480;10.986;2023-02-02T00:20:33;98334.97;;;4.40;78.90
55351;BME280;62194;49.480;10.986;2023-02-02T00:20:41;98348.47;;;4.54;78.72
55351;BME280;62194;49.480;10.986;2023-02-02T00:20:46;98350.25;;;4.44;78.90
55351;BME280;62194;49.480;10.986;2023-02-02T00:20:54;98335.19;;;4.43;78.80
55351;BME280;62194;49.480;10.986;2023-02-02T00:20:59;98377.94;;;4.64;78.62
55351;BME280;62194;49.480;10.986;2023-02-02T00:21:07;98323.38;;;4.39;78.66
55351;BME280;62194;49.480;10.986;2023-02-02T00:21:12;98370.66;;;4.64;78.51
55351;BME280;62194;49.480;10.986;2023-02-02T00:21:17;98347.56;;;4.44;79.28
55351;BME280;62194;49.480;10.986;2023-02-02T00:21:23;98345.38;;;4.46;78.65
55351;BME280;62194;49.480;10.986;2023-02-02T00:21:29;98333.41;;;4.39;78.39
55351;BME280;62194;49.480;10.986;2023-02-02T00:21:34;98373.06;;;4.66;78.33
55351;BME280;62194;49.480;10.986;2023-02-02T00:21:40;98353.84;;;4.54;78.10
55351;BME280;62194;49.480;10.986;2023-02-02T00:21:46;98360.47;;;4.61;78.31
55351;BME280;62194;49.480;10.986;2023-02-02T00:21:53;98364.63;;;4.67;78.23
55351;BME280;62194;49.480;10.986;2023-02-02T00:21:58;98322.28;;;4.40;78.27
55351;BME280;62194;49.480;10.986;2023-02-02T00:22:04;98378.13;;;4.67;78.22
55351;BME280;62194;49.480;10.986;2023-02-02T00:22:09;98378.66;;;4.69;78.26
55351;BME280;62194;49.480;10.986;2023-02-02T00:22:14;98368.84;;;4.60;78.50
55351;BME280;62194;49.480;10.986;2023-02-02T00:22:21;98373.25;;;4.69;78.53
55351;BME280;62194;49.480;10.986;2023-02-02T00:22:26;98363.66;;;4.63;78.28
55351;BME280;62194;49.480;10.986;2023-02-02T00:22:32;98364.94;;;4.66;78.30
55351;BME280;62194;49.480;10.986;2023-02-02T00:22:38;98335.38;;;4.47;78.90
55351;BME280;62194;49.480;10.986;2023-02-02T00:22:43;98337.00;;;4.48;79.01
55351;BME280;62194;49.480;10.986;2023-02-02T00:22:48;98372.44;;;4.69;78.84
55351;BME280;62194;49.480;10.986;2023-02-02T00:22:54;98362.44;;;4.69;78.70
55351;BME280;62194;49.480;10.986;2023-02-02T00:23:00;98343.38;;;4.52;78.49
55351;BME280;62194;49.480;10.986;2023-02-02T00:23:06;98359.88;;;4.64;78.38
55351;BME280;62194;49.480;10.986;2023-02-02T00:23:11;98357.44;;;4.63;78.36
55351;BME280;62194;49.480;10.986;2023-02-02T00:23:16;98348.25;;;4.50;78.67
55351;BME280;62194;49.480;10.986;2023-02-02T00:23:21;98336.16;;;4.47;78.20
55351;BME280;62194;49.480;10.986;2023-02-02T00:23:27;98356.47;;;4.59;78.37
55351;BME280;62194;49.480;10.986;2023-02-02T00:23:32;98327.88;;;4.44;78.30
55351;BME280;62194;49.480;10.986;2023-02-02T00:23:37;98331.28;;;4.50;78.34
55351;BME280;62194;49.480;10.986;2023-02-02T00:23:42;98378.66;;;4.69;78.24
55351;BME280;62194;49.480;10.986;2023-02-02T00:23:48;98344.78;;;4.50;78.22
55351;BME280;62194;49.480;10.986;2023-02-02T00:23:53;98373.25;;;4.69;78.43
55351;BME280;62194;49.480;10.986;2023-02-02T00:24:01;98345.13;;;4.70;78.14
55351;BME280;62194;49.480;10.986;2023-02-02T00:24:08;98364.03;;;4.70;78.20
55351;BME280;62194;49.480;10.986;2023-02-02T00:24:17;98328.88;;;4.48;78.22
55351;BME280;62194;49.480;10.986;2023-02-02T00:24:23;98346.78;;;4.58;78.11
55351;BME280;62194;49.480;10.986;2023-02-02T00:24:28;98351.06;;;4.59;78.04
55351;BME280;62194;49.480;10.986;2023-02-02T00:24:34;98344.06;;;4.58;78.40
55351;BME280;62194;49.480;10.986;2023-02-02T00:24:42;98337.56;;;4.59;78.02
55351;BME280;62194;49.480;10.986;2023-02-02T00:24:47;98301.09;;;4.34;77.94
55351;BME280;62194;49.480;10.986;2023-02-02T00:24:52;98363.75;;;4.72;78.49
55351;BME280;62194;49.480;10.986;2023-02-02T00:24:58;98330.47;;;4.49;78.19
55351;BME280;62194;49.480;10.986;2023-02-02T00:25:03;98306.78;;;4.46;77.92
55351;BME280;62194;49.480;10.986;2023-02-02T00:25:09;98361.03;;;4.72;77.85
55351;BME280;62194;49.480;10.986;2023-02-02T00:25:14;98359.44;;;4.71;77.98
55351;BME280;62194;49.480;10.986;2023-02-02T00:25:20;98335.97;;;4.58;78.04
55351;BME280;62194;49.480;10.986;2023-02-02T00:25:25;98362.16;;;4.71;77.94
55351;BME280;62194;49.480;10.986;2023-02-02T00:25:31;98342.78;;;4.55;78.50
55351;BME280;62194;49.480;10.986;2023-02-02T00:25:39;98341.84;;;4.60;78.27
55351;BME280;62194;49.480;10.986;2023-02-02T00:25:48;98326.25;;;4.57;78.62
55351;BME280;62194;49.480;10.986;2023-02-02T00:25:53;98325.06;;;4.49;78.19
55351;BME280;62194;49.480;10.986;2023-02-02T00:25:58;98300.50;;;4.37;78.00
55351;BME280;62194;49.480;10.986;2023-02-02T00:26:04;98360.25;;;4.72;78.10
55351;BME280;62194;49.480;10.986;2023-02-02T00:26:09;98338.69;;;4.58;77.83
55351;BME280;62194;49.480;10.986;2023-02-02T00:26:15;98338.44;;;4.54;77.60
55351;BME280;62194;49.480;10.986;2023-02-02T00:26:21;98331.47;;;4.53;77.98
55351;BME280;62194;49.480;10.986;2023-02-02T00:26:26;98351.81;;;4.73;78.41
55351;BME280;62194;49.480;10.986;2023-02-02T00:26:32;98323.78;;;4.46;78.05
55351;BME280;62194;49.480;10.986;2023-02-02T00:26:38;98330.47;;;4.49;78.37
55351;BME280;62194;49.480;10.986;2023-02-02T00:26:47;98368.81;;;4.74;78.18
55351;BME280;62194;49.480;10.986;2023-02-02T00:26:57;98368.03;;;4.73;78.04
55351;BME280;62194;49.480;10.986;2023-02-02T00:27:02;98333.97;;;4.50;77.97
55351;BME280;62194;49.480;10.986;2023-02-02T00:27:08;98353.03;;;4.67;78.01
55351;BME280;62194;49.480;10.986;2023-02-02T00:27:13;98332.06;;;4.50;78.20
55351;BME280;62194;49.480;10.986;2023-02-02T00:27:18;98326.47;;;4.46;77.68
55351;BME280;62194;49.480;10.986;2023-02-02T00:27:24;98357.22;;;4.73;77.92
55351;BME280;62194;49.480;10.986;2023-02-02T00:27:29;98363.44;;;4.74;77.79
55351;BME280;62194;49.480;10.986;2023-02-02T00:27:34;98349.06;;;4.64;77.88
55351;BME280;62194;49.480;10.986;2023-02-02T00:27:42;98323.16;;;4.50;77.78
55351;BME280;62194;49.480;10.986;2023-02-02T00:27:48;98366.94;;;4.74;77.89
55351;BME280;62194;49.480;10.986;2023-02-02T00:27:53;98353.53;;;4.69;77.95
55351;BME280;62194;49.480;10.986;2023-02-02T00:28:01;98352.94;;;4.72;77.93
55351;BME280;62194;49.480;10.986;2023-02-02T00:28:07;98326.84;;;4.54;77.91
55351;BME280;62194;49.480;10.986;2023-02-02T00:28:13;98354.94;;;4.66;77.89
55351;BME280;62194;49.480;10.986;2023-02-02T00:28:19;98373.63;;;4.77;77.74
55351;BME280;62194;49.480;10.986;2023-02-02T00:28:24;98355.25;;;4.65;77.75
55351;BME280;62194;49.480;10.986;2023-02-02T00:28:29;98346.13;;;4.61;77.72
55351;BME280;62194;49.480;10.986;2023-02-02T00:28:35;98339.66;;;4.62;77.83
55351;BME280;62194;49.480;10.986;2023-02-02T00:28:40;98345.84;;;4.62;77.94
55351;BME280;62194;49.480;10.986;2023-02-02T00:28:46;98366.63;;;4.76;77.79
55351;BME280;62194;49.480;10.986;2023-02-02T00:28:52;98331.19;;;4.55;77.83
55351;BME280;62194;49.480;10.986;2023-02-02T00:28:57;98313.47;;;4.49;77.68
55351;BME280;62194;49.480;10.986;2023-02-02T00:29:04;98363.75;;;4.72;77.80
55351;BME280;62194;49.480;10.986;2023-02-02T00:29:16;98365.66;;;4.72;77.72
55351;BME280;62194;49.480;10.986;2023-02-02T00:29:27;98335.56;;;4.64;77.52
55351;BME280;62194;49.480;10.986;2023-02-02T00:29:35;98346.97;;;4.61;77.48
55351;BME280;62194;49.480;10.986;2023-02-02T00:29:40;98332.84;;;4.51;77.54
55351;BME280;62194;49.480;10.986;2023-02-02T00:29:46;98354.25;;;4.75;77.79
55351;BME280;62194;49.480;10.986;2023-02-02T00:29:51;98324.94;;;4.54;77.57
55351;BME280;62194;49.480;10.986;2023-02-02T00:29:57;98366.31;;;4.77;78.16
55351;BME280;62194;49.480;10.986;2023-02-02T00:30:06;98318.88;;;4.49;78.20
55351;BME280;62194;49.480;10.986;2023-02-02T00:30:15;98322.84;;;4.51;77.89
55351;BME280;62194;49.480;10.986;2023-02-02T00:30:20;98362.81;;;4.77;77.87
55351;BME280;62194;49.480;10.986;2023-02-02T00:30:26;98325.88;;;4.50;77.61
55351;BME280;62194;49.480;10.986;2023-02-02T00:30:31;98366.31;;;4.77;77.69
55351;BME280;62194;49.480;10.986;2023-02-02T00:30:36;98352.06;;;4.63;77.68
55351;BME280;62194;49.480;10.986;2023-02-02T00:30:41;98379.03;;;4.77;77.67
55351;BME280;62194;49.480;10.986;2023-02-02T00:30:47;98333.66;;;4.51;77.51
55351;BME280;62194;49.480;10.986;2023-02-02T00:30:52;98361.66;;;4.69;77.52
55351;BME280;62194;49.480;10.986;2023-02-02T00:30:57;98331.47;;;4.53;77.48
55351;BME280;62194;49.480;10.986;2023-02-02T00:31:02;98360.25;;;4.72;77.68
55351;BME280;62194;49.480;10.986;2023-02-02T00:31:08;98350.94;;;4.64;77.48
55351;BME280;62194;49.480;10.986;2023-02-02T00:31:16;98346.97;;;4.61;77.70
55351;BME280;62194;49.480;10.986;2023-02-02T00:31:22;98360.16;;;4.63;77.80
55351;BME280;62194;49.480;10.986;2023-02-02T00:31:27;98345.06;;;4.62;77.69
55351;BME280;62194;49.480;10.986;2023-02-02T00:31:33;98356.75;;;4.71;77.79
55351;BME280;62194;49.480;10.986;2023-02-02T00:31:38;98342.66;;;4.60;77.62
55351;BME280;62194;49.480;10.986;2023-02-02T00:31:44;98351.63;;;4.69;77.49
55351;BME280;62194;49.480;10.986;2023-02-02T00:31:52;98338.16;;;4.56;77.75
55351;BME280;62194;49.480;10.986;2023-02-02T00:31:58;98363.22;;;4.70;77.45
55351;BME280;62194;49.480;10.986;2023-02-02T00:32:03;98341.84;;;4.60;77.19
55351;BME280;62194;49.480;10.986;2023-02-02T00:32:09;98331.28;;;4.50;77.35
55351;BME280;62194;49.480;10.986;2023-02-02T00:32:14;98344.38;;;4.56;77.29
55351;BME280;62194;49.480;10.986;2023-02-02T00:32:19;98328.06;;;4.47;77.16
55351;BME280;62194;49.480;10.986;2023-02-02T00:32:25;98341.06;;;4.59;77.52
55351;BME280;62194;49.480;10.986;2023-02-02T00:32:30;98347.25;;;4.60;77.47
55351;BME280;62194;49.480;10.986;2023-02-02T00:32:35;98333.47;;;4.61;77.79
55351;BME280;62194;49.480;10.986;2023-02-02T00:32:41;98338.53;;;4.63;77.77
55351;BME280;62194;49.480;10.986;2023-02-02T00:32:46;98321.16;;;4.55;77.75
55351;BME280;62194;49.480;10.986;2023-02-02T00:32:52;98323.56;;;4.57;77.70
55351;BME280;62194;49.480;10.986;2023-02-02T00:32:58;98360.44;;;4.75;77.65
55351;BME280;62194;49.480;10.986;2023-02-02T00:33:03;98345.53;;;4.64;77.63
55351;BME280;62194;49.480;10.986;2023-02-02T00:33:08;98330.16;;;4.51;77.89
55351;BME280;62194;49.480;10.986;2023-02-02T00:33:13;98343.03;;;4.67;78.15
55351;BME280;62194;49.480;10.986;2023-02-02T00:33:19;98363.94;;;4.76;77.72
55351;BME280;62194;49.480;10.986;2023-02-02T00:33:24;98352.06;;;4.63;77.91
55351;BME280;62194;49.480;10.986;2023-02-02T00:33:29;98367.44;;;4.76;77.70
55351;BME280;62194;49.480;10.986;2023-02-02T00:33:34;98324.28;;;4.49;77.84
55351;BME280;62194;49.480;10.986;2023-02-02T00:33:47;98362.03;;;4.76;77.49